Time;durP1;ratioP1;P1;durP2;ratioP2;P2;SDS_P1;SDS_P2;PMS_P1;PMS_P2;Temp;Humidity;BMP_temperature;BMP_pressure;BME280_temperature;BME280_humidity;BME280_pressure;Samples;Min_cycle;Max_cycle;Signal;HPM_P1;HPM_P2
2023/07/26 00:00:55;;;;;;;9.48;5.85;;;14.00;99.90;;;;;;5080862;28;20223;-84
2023/07/26 00:03:26;;;;;;;12.25;6.32;;;14.00;99.90;;;;;;5080992;28;20314;-82
2023/07/26 00:05:56;;;;;;;6.35;5.00;;;14.00;99.90;;;;;;5090099;28;20226;-83
2023/07/26 00:08:27;;;;;;;8.55;6.20;;;14.10;99.90;;;;;;5090005;28;20199;-83
2023/07/26 00:10:58;;;;;;;7.43;6.03;;;14.30;99.90;;;;;;5084643;28;20661;-82
2023/07/26 00:13:31;;;;;;;7.20;5.45;;;14.40;99.90;;;;;;5075678;28;20187;-83
2023/07/26 00:16:01;;;;;;;8.30;5.68;;;14.50;99.90;;;;;;5080645;28;20194;-81
2023/07/26 00:18:32;;;;;;;10.18;6.47;;;14.60;99.90;;;;;;5088637;28;20195;-81
2023/07/26 00:21:03;;;;;;;7.15;5.57;;;14.60;99.90;;;;;;5091455;28;20200;-83
2023/07/26 00:23:34;;;;;;;8.23;5.55;;;14.60;99.90;;;;;;5090101;28;20205;-83
2023/07/26 00:26:04;;;;;;;10.52;5.95;;;14.80;99.90;;;;;;5090958;28;20196;-82
2023/07/26 00:28:37;;;;;;;11.55;6.60;;;14.90;99.90;;;;;;5088386;28;20611;-82
2023/07/26 00:31:08;;;;;;;6.95;5.85;;;14.70;99.90;;;;;;5086877;28;20191;-81
2023/07/26 00:33:39;;;;;;;6.55;5.65;;;14.80;99.90;;;;;;5076046;28;20208;-83
2023/07/26 00:36:09;;;;;;;7.13;6.28;;;14.90;99.90;;;;;;5090393;28;20195;-83
2023/07/26 00:38:40;;;;;;;8.05;6.00;;;15.00;99.90;;;;;;5091911;28;20184;-82
2023/07/26 00:41:11;;;;;;;8.18;6.13;;;15.10;99.90;;;;;;5076026;28;20206;-83
2023/07/26 00:43:45;;;;;;;8.88;5.95;;;15.30;99.90;;;;;;5085520;28;20195;-83
2023/07/26 00:46:16;;;;;;;8.82;6.53;;;15.40;99.90;;;;;;5082280;28;20301;-83
2023/07/26 00:48:47;;;;;;;11.75;6.57;;;15.50;99.90;;;;;;5090970;28;20192;-84
2023/07/26 00:51:19;;;;;;;10.07;5.97;;;15.60;99.90;;;;;;5074381;28;20210;-82
2023/07/26 00:53:50;;;;;;;10.00;6.13;;;15.60;99.90;;;;;;5081649;28;20222;-84
2023/07/26 00:56:21;;;;;;;6.93;5.95;;;15.70;99.90;;;;;;5089549;28;20218;-85
2023/07/26 00:58:54;;;;;;;8.18;5.78;;;15.80;99.90;;;;;;5092755;28;20191;-84
2023/07/26 01:01:24;;;;;;;7.55;5.95;;;15.90;99.90;;;;;;5078747;28;20207;-83
2023/07/26 01:03:55;;;;;;;7.85;6.18;;;16.10;99.90;;;;;;5090098;28;20227;-84
2023/07/26 01:06:37;;;;;;;7.70;6.10;;;16.10;99.90;;;;;;5090459;28;20195;-84
2023/07/26 01:09:14;;;;;;;9.68;6.03;;;16.20;99.90;;;;;;5091369;28;20226;-85
2023/07/26 01:11:53;;;;;;;8.48;6.55;;;16.40;99.90;;;;;;5085886;28;20251;-86
2023/07/26 01:14:35;;;;;;;7.93;5.65;;;16.50;99.90;;;;;;5092301;28;20188;-86
2023/07/26 01:17:06;;;;;;;7.32;5.50;;;16.60;99.90;;;;;;5070813;28;20283;-83
2023/07/26 01:19:37;;;;;;;8.68;6.18;;;16.70;99.90;;;;;;5082451;28;20199;-83
2023/07/26 01:22:10;;;;;;;7.60;5.65;;;16.80;99.90;;;;;;5085207;28;20227;-83
2023/07/26 01:24:41;;;;;;;6.72;5.18;;;16.90;99.90;;;;;;5081989;28;20215;-82
2023/07/26 01:27:12;;;;;;;7.97;4.72;;;17.00;99.90;;;;;;5083629;28;20206;-83
2023/07/26 01:29:43;;;;;;;9.02;4.07;;;17.20;99.90;;;;;;5070789;28;20286;-83
2023/07/26 01:32:17;;;;;;;5.00;4.20;;;17.30;99.90;;;;;;5079829;28;20191;-83
2023/07/26 01:34:48;;;;;;;8.85;4.20;;;17.40;99.90;;;;;;5076382;28;20206;-83
2023/07/26 01:37:22;;;;;;;5.72;3.90;;;17.40;99.90;;;;;;5076466;28;20195;-82
2023/07/26 01:39:54;;;;;;;6.13;3.88;;;17.60;99.90;;;;;;5091509;28;20194;-83
2023/07/26 01:42:25;;;;;;;5.75;3.72;;;17.70;99.90;;;;;;5076201;28;20228;-85
2023/07/26 01:44:56;;;;;;;5.90;2.85;;;17.80;99.90;;;;;;5083072;28;20231;-84
2023/07/26 01:47:27;;;;;;;5.75;3.47;;;17.80;99.90;;;;;;5084406;28;20194;-84
2023/07/26 01:49:57;;;;;;;4.47;3.00;;;17.90;99.90;;;;;;5081499;28;20188;-84
2023/07/26 01:52:30;;;;;;;3.13;2.63;;;18.00;99.90;;;;;;5081514;28;20215;-81
2023/07/26 01:55:02;;;;;;;2.75;2.50;;;18.10;99.90;;;;;;5079329;28;20221;-83
2023/07/26 01:57:33;;;;;;;3.53;2.47;;;18.10;99.90;;;;;;5087160;28;20290;-83
2023/07/26 02:00:04;;;;;;;4.93;2.33;;;18.20;99.90;;;;;;5075882;28;20196;-84
2023/07/26 02:02:35;;;;;;;2.38;2.00;;;18.30;99.90;;;;;;5085505;28;20642;-83
2023/07/26 02:05:06;;;;;;;3.20;2.22;;;18.30;99.90;;;;;;5090207;28;20664;-84
2023/07/26 02:07:39;;;;;;;4.50;1.95;;;18.40;99.90;;;;;;5077233;28;20215;-83
2023/07/26 02:10:10;;;;;;;4.15;2.10;;;18.50;99.90;;;;;;5079365;28;20681;-83
2023/07/26 02:12:41;;;;;;;3.25;2.03;;;18.60;99.90;;;;;;5089442;28;20194;-83
2023/07/26 02:15:12;;;;;;;2.13;1.92;;;18.70;99.90;;;;;;5086619;28;20203;-83
2023/07/26 02:17:43;;;;;;;3.42;2.00;;;18.70;99.90;;;;;;5083034;28;20682;-83
2023/07/26 02:20:14;;;;;;;4.03;2.00;;;18.90;99.90;;;;;;5090154;28;20716;-83
2023/07/26 02:22:47;;;;;;;2.63;1.95;;;18.90;99.90;;;;;;5084852;28;20211;-82
2023/07/26 02:25:18;;;;;;;1.77;1.60;;;19.00;99.90;;;;;;5070886;28;20203;-81
2023/07/26 02:27:48;;;;;;;2.22;1.50;;;19.10;99.90;;;;;;5082044;28;20202;-81
2023/07/26 02:30:19;;;;;;;3.47;1.70;;;19.10;99.90;;;;;;5087788;28;20214;-81
2023/07/26 02:32:50;;;;;;;2.25;1.30;;;19.20;99.90;;;;;;5074579;28;20215;-86
2023/07/26 02:35:21;;;;;;;1.75;1.35;;;19.30;99.90;;;;;;5088432;28;20187;-82
2023/07/26 02:37:54;;;;;;;3.30;1.52;;;19.40;99.90;;;;;;5090690;28;20187;-82
2023/07/26 02:40:25;;;;;;;2.03;1.40;;;19.40;99.90;;;;;;5090361;28;20195;-84
2023/07/26 02:42:56;;;;;;;1.88;1.60;;;19.50;99.90;;;;;;5085041;28;20693;-83
2023/07/26 02:45:26;;;;;;;1.58;1.42;;;19.50;99.90;;;;;;5087339;28;20226;-85
2023/07/26 02:47:57;;;;;;;2.28;1.52;;;19.60;99.90;;;;;;5075355;28;20222;-83
2023/07/26 02:50:28;;;;;;;2.13;1.40;;;19.70;99.90;;;;;;5078649;28;20202;-84
2023/07/26 02:53:01;;;;;;;3.05;1.50;;;19.80;99.90;;;;;;5089826;28;20207;-84
2023/07/26 02:55:32;;;;;;;1.70;1.23;;;19.80;99.90;;;;;;5079551;28;20195;-84
2023/07/26 02:58:04;;;;;;;3.60;1.88;;;19.80;99.90;;;;;;5082765;28;20219;-84
2023/07/26 03:00:35;;;;;;;1.88;1.52;;;19.80;99.90;;;;;;5072797;28;20207;-83
2023/07/26 03:03:06;;;;;;;2.70;1.50;;;19.90;99.90;;;;;;5069072;28;20236;-82
2023/07/26 03:05:40;;;;;;;2.88;1.40;;;19.90;99.90;;;;;;5075615;28;20187;-84
2023/07/26 03:08:12;;;;;;;2.10;1.48;;;19.90;99.90;;;;;;5089142;28;20214;-84
2023/07/26 03:10:43;;;;;;;3.28;1.40;;;20.00;99.90;;;;;;5071846;28;20197;-83
2023/07/26 03:13:14;;;;;;;1.60;1.20;;;20.10;99.90;;;;;;5074550;28;20198;-83
2023/07/26 03:15:44;;;;;;;2.58;1.20;;;20.10;99.90;;;;;;5088007;28;20202;-84
2023/07/26 03:18:17;;;;;;;1.65;1.30;;;20.10;99.90;;;;;;5090670;28;20214;-84
2023/07/26 03:20:49;;;;;;;1.63;1.20;;;20.20;99.90;;;;;;5089204;28;20201;-84
2023/07/26 03:23:22;;;;;;;3.83;1.25;;;20.20;99.90;;;;;;5090624;28;20301;-83
2023/07/26 03:25:52;;;;;;;4.68;1.60;;;20.20;99.90;;;;;;5084968;28;20196;-83
2023/07/26 03:28:23;;;;;;;1.65;1.20;;;20.20;99.90;;;;;;5070083;28;20196;-84
2023/07/26 03:30:54;;;;;;;1.27;1.00;;;20.20;99.90;;;;;;5069530;28;20202;-83
2023/07/26 03:33:25;;;;;;;2.65;1.30;;;20.30;99.90;;;;;;5083069;28;20188;-85
2023/07/26 03:35:56;;;;;;;1.65;1.20;;;20.20;99.90;;;;;;5089331;28;20286;-84
2023/07/26 03:38:29;;;;;;;1.50;1.15;;;20.10;99.90;;;;;;5085595;28;20199;-84
2023/07/26 03:41:00;;;;;;;1.63;1.05;;;20.10;99.90;;;;;;5084632;28;20191;-84
2023/07/26 03:43:31;;;;;;;1.85;1.20;;;20.00;99.90;;;;;;5081076;28;20669;-81
2023/07/26 03:46:02;;;;;;;2.47;1.40;;;20.10;99.90;;;;;;5092552;28;20302;-84
2023/07/26 03:48:33;;;;;;;1.58;1.00;;;20.10;99.90;;;;;;5093302;28;20256;-83
2023/07/26 03:51:04;;;;;;;2.45;1.00;;;20.10;99.90;;;;;;5079437;28;20192;-85
2023/07/26 03:53:36;;;;;;;2.08;0.80;;;20.10;99.90;;;;;;5089197;28;20198;-82
2023/07/26 03:56:07;;;;;;;1.85;1.17;;;20.00;99.90;;;;;;5083671;28;20200;-84
2023/07/26 03:58:39;;;;;;;1.60;1.02;;;20.10;99.90;;;;;;5084707;28;20206;-83
2023/07/26 04:01:09;;;;;;;2.88;1.58;;;20.00;99.90;;;;;;5085226;28;20333;-84
2023/07/26 04:03:42;;;;;;;3.47;0.98;;;20.00;99.90;;;;;;5085929;28;20235;-82
2023/07/26 04:06:15;;;;;;;1.40;0.90;;;20.00;99.90;;;;;;5071681;28;20298;-82
2023/07/26 04:08:48;;;;;;;1.55;1.20;;;20.00;99.90;;;;;;5074077;28;20215;-81
2023/07/26 04:11:19;;;;;;;1.30;1.17;;;20.00;99.90;;;;;;5095078;28;20215;-83
2023/07/26 04:13:50;;;;;;;1.55;1.27;;;20.10;99.90;;;;;;5092921;28;20195;-82
2023/07/26 04:16:22;;;;;;;4.30;1.10;;;20.20;99.90;;;;;;5090936;28;20219;-83
2023/07/26 04:18:53;;;;;;;1.58;1.00;;;20.20;99.90;;;;;;5074286;28;20790;-81
2023/07/26 04:21:24;;;;;;;1.67;1.17;;;20.20;99.90;;;;;;5073247;28;20207;-83
2023/07/26 04:23:56;;;;;;;1.10;1.00;;;20.20;99.90;;;;;;5073361;28;20227;-83
2023/07/26 04:26:27;;;;;;;2.33;0.98;;;20.10;99.90;;;;;;5071699;28;20226;-83
2023/07/26 04:28:58;;;;;;;1.13;0.85;;;20.10;99.70;;;;;;5084665;28;20222;-83
2023/07/26 04:31:29;;;;;;;1.40;0.88;;;20.10;99.90;;;;;;5076095;28;20195;-84
2023/07/26 04:33:59;;;;;;;1.40;0.88;;;20.10;99.90;;;;;;5079672;28;20222;-82
2023/07/26 04:36:30;;;;;;;1.08;0.82;;;20.10;99.10;;;;;;5075294;28;20219;-83
2023/07/26 04:39:03;;;;;;;2.20;0.93;;;20.10;99.30;;;;;;5082652;28;20205;-85
2023/07/26 04:41:34;;;;;;;1.75;1.00;;;20.10;97.60;;;;;;5083910;28;20266;-82
2023/07/26 04:44:04;;;;;;;2.05;0.88;;;20.00;98.30;;;;;;5084361;28;20227;-81
2023/07/26 04:46:35;;;;;;;1.70;1.00;;;20.00;99.30;;;;;;5077768;28;20283;-82
2023/07/26 04:49:06;;;;;;;1.73;1.00;;;20.00;99.70;;;;;;5084939;28;20195;-82
2023/07/26 04:51:37;;;;;;;2.30;1.00;;;20.00;99.90;;;;;;5081353;28;20187;-83
2023/07/26 04:54:09;;;;;;;3.95;1.10;;;20.00;99.90;;;;;;5089935;28;20188;-84
2023/07/26 04:56:40;;;;;;;2.53;1.20;;;19.90;99.90;;;;;;5084197;28;20667;-84
2023/07/26 04:59:11;;;;;;;2.67;1.45;;;19.90;99.90;;;;;;5071763;28;20180;-84
2023/07/26 05:01:42;;;;;;;5.63;1.55;;;19.90;99.90;;;;;;5072097;28;20188;-83
2023/07/26 05:04:13;;;;;;;2.45;1.40;;;19.90;99.90;;;;;;5071410;28;20239;-83
2023/07/26 05:06:44;;;;;;;2.90;1.45;;;19.90;99.90;;;;;;5071959;28;20210;-83
2023/07/26 05:09:17;;;;;;;2.13;1.27;;;19.80;99.90;;;;;;5071875;28;20206;-84
2023/07/26 05:11:48;;;;;;;1.35;1.20;;;19.90;99.90;;;;;;5084120;28;20230;-84
2023/07/26 05:14:20;;;;;;;3.70;1.52;;;19.90;99.90;;;;;;5091564;28;20540;-84
2023/07/26 05:16:51;;;;;;;4.63;1.30;;;19.90;99.90;;;;;;5086822;28;20299;-83
2023/07/26 05:19:22;;;;;;;3.72;1.30;;;19.90;99.90;;;;;;5091433;28;20675;-83
2023/07/26 05:21:52;;;;;;;4.13;1.35;;;19.90;99.90;;;;;;5091840;28;20195;-82
2023/07/26 05:24:25;;;;;;;3.10;1.20;;;19.90;99.90;;;;;;5091641;28;20740;-84
2023/07/26 05:26:56;;;;;;;4.97;1.40;;;19.90;99.90;;;;;;5088997;28;20699;-84
2023/07/26 05:29:27;;;;;;;2.53;1.40;;;19.90;99.90;;;;;;5086046;28;20211;-84
2023/07/26 05:31:57;;;;;;;1.88;1.40;;;19.90;99.90;;;;;;5085919;28;20205;-82
2023/07/26 05:34:28;;;;;;;3.35;1.63;;;20.00;99.90;;;;;;5074630;28;20198;-82
2023/07/26 05:36:59;;;;;;;2.95;1.50;;;20.00;99.90;;;;;;5090111;28;21464;-84
2023/07/26 05:39:32;;;;;;;4.43;1.80;;;19.90;99.90;;;;;;5090334;28;20218;-83
2023/07/26 05:42:02;;;;;;;6.85;1.77;;;19.80;99.90;;;;;;5083501;28;20211;-82
2023/07/26 05:44:33;;;;;;;5.90;1.77;;;19.80;99.90;;;;;;5088714;28;20242;-82
2023/07/26 05:47:04;;;;;;;4.05;2.10;;;19.80;99.90;;;;;;5073949;28;20204;-83
2023/07/26 05:49:35;;;;;;;3.67;1.70;;;19.80;99.90;;;;;;5070459;28;20196;-85
2023/07/26 05:52:06;;;;;;;5.00;1.83;;;19.70;99.90;;;;;;5071276;28;20184;-85
2023/07/26 05:54:38;;;;;;;4.50;1.50;;;19.70;99.90;;;;;;5084348;28;20645;-84
2023/07/26 05:57:09;;;;;;;4.00;1.77;;;19.70;99.90;;;;;;5070959;28;20190;-84
2023/07/26 05:59:40;;;;;;;4.80;1.92;;;19.70;99.90;;;;;;5071403;28;20206;-84
2023/07/26 06:02:11;;;;;;;3.53;1.67;;;19.70;99.90;;;;;;5085920;28;20254;-84
2023/07/26 06:04:42;;;;;;;3.78;1.50;;;19.70;99.90;;;;;;5090895;28;20579;-83
2023/07/26 06:07:12;;;;;;;6.32;2.03;;;19.70;99.90;;;;;;5078521;28;20202;-85
2023/07/26 06:09:45;;;;;;;4.78;1.80;;;19.70;99.90;;;;;;5086958;28;20215;-84
2023/07/26 06:12:16;;;;;;;6.63;2.15;;;19.70;99.90;;;;;;5076139;28;20722;-83
2023/07/26 06:14:47;;;;;;;3.20;1.73;;;19.70;99.90;;;;;;5087179;28;20233;-83
2023/07/26 06:17:17;;;;;;;2.95;1.60;;;19.80;99.90;;;;;;5083279;28;20214;-83
2023/07/26 06:19:48;;;;;;;3.45;1.60;;;19.90;99.90;;;;;;5082037;28;20685;-83
2023/07/26 06:22:19;;;;;;;5.25;2.55;;;19.90;99.90;;;;;;5086219;28;20198;-85
2023/07/26 06:24:52;;;;;;;5.35;2.10;;;20.00;99.90;;;;;;5077081;28;20287;-83
2023/07/26 06:27:25;;;;;;;5.75;2.30;;;20.00;99.90;;;;;;5071962;28;20202;-84
2023/07/26 06:29:56;;;;;;;7.40;2.53;;;20.10;99.90;;;;;;5071271;28;20216;-85
2023/07/26 06:32:26;;;;;;;5.47;2.15;;;20.10;99.90;;;;;;5071139;28;20194;-84
2023/07/26 06:34:58;;;;;;;4.97;1.90;;;20.20;99.90;;;;;;5070987;28;20223;-84
2023/07/26 06:37:29;;;;;;;6.07;2.30;;;20.20;99.90;;;;;;5082606;28;20187;-84
2023/07/26 06:40:01;;;;;;;7.05;2.22;;;20.10;99.90;;;;;;5091019;28;20571;-83
2023/07/26 06:42:32;;;;;;;6.32;1.95;;;19.90;99.90;;;;;;5070346;28;20733;-84
2023/07/26 06:45:03;;;;;;;5.57;2.13;;;19.90;99.90;;;;;;5073318;28;20223;-84
2023/07/26 06:47:36;;;;;;;5.65;2.05;;;19.70;99.90;;;;;;5073606;28;20222;-85
2023/07/26 06:50:07;;;;;;;5.75;1.98;;;19.70;99.90;;;;;;5082568;28;20282;-83
2023/07/26 06:52:38;;;;;;;5.82;2.08;;;19.60;99.90;;;;;;5093198;28;20202;-83
2023/07/26 06:55:11;;;;;;;7.60;2.08;;;19.50;99.90;;;;;;5090927;28;20195;-84
2023/07/26 06:57:41;;;;;;;2.80;1.77;;;19.30;99.90;;;;;;5077015;28;20204;-84
2023/07/26 07:00:15;;;;;;;3.55;1.60;;;19.20;99.90;;;;;;5070337;28;20202;-84
2023/07/26 07:02:46;;;;;;;3.55;1.73;;;19.20;99.90;;;;;;5070675;28;20269;-85
2023/07/26 07:05:17;;;;;;;5.47;1.75;;;19.00;99.90;;;;;;5083292;28;20234;-86
2023/07/26 07:07:48;;;;;;;3.42;1.65;;;18.90;99.90;;;;;;5079328;28;20207;-85
2023/07/26 07:10:21;;;;;;;3.20;1.33;;;18.80;99.90;;;;;;5070938;28;20657;-85
2023/07/26 07:12:51;;;;;;;3.25;1.50;;;18.70;99.90;;;;;;5080276;28;20237;-85
2023/07/26 07:15:22;;;;;;;4.50;1.73;;;18.60;99.90;;;;;;5094396;28;20195;-84
2023/07/26 07:17:53;;;;;;;3.13;1.38;;;18.50;99.90;;;;;;5094641;28;20186;-83
2023/07/26 07:20:24;;;;;;;2.80;1.40;;;18.40;99.90;;;;;;5092616;28;20199;-84
2023/07/26 07:22:56;;;;;;;5.30;1.70;;;18.30;99.90;;;;;;5094063;28;20236;-84
2023/07/26 07:25:29;;;;;;;3.65;1.58;;;18.20;99.90;;;;;;5093644;28;20298;-83
2023/07/26 07:27:59;;;;;;;4.20;1.63;;;18.20;99.90;;;;;;5093447;28;20270;-84
2023/07/26 07:30:32;;;;;;;3.03;1.98;;;18.10;99.90;;;;;;5092503;28;20279;-84
2023/07/26 07:33:03;;;;;;;5.75;2.20;;;18.10;99.90;;;;;;5089042;28;20564;-84
2023/07/26 07:35:34;;;;;;;3.75;2.08;;;18.00;99.90;;;;;;5081789;28;20275;-84
2023/07/26 07:38:04;;;;;;;2.78;1.70;;;17.90;99.90;;;;;;5094134;28;20195;-84
2023/07/26 07:40:37;;;;;;;4.32;2.03;;;17.90;99.90;;;;;;5093105;28;20198;-82
2023/07/26 07:43:08;;;;;;;6.82;2.00;;;17.80;99.90;;;;;;5094122;28;20191;-83
2023/07/26 07:45:43;;;;;;;3.70;2.03;;;17.80;99.90;;;;;;5093477;28;20211;-83
2023/07/26 07:48:14;;;;;;;5.35;1.90;;;17.70;99.90;;;;;;5093463;28;20206;-83
2023/07/26 07:50:44;;;;;;;5.00;1.80;;;17.70;99.90;;;;;;5093697;28;20471;-83
2023/07/26 07:53:15;;;;;;;3.55;1.65;;;17.70;99.90;;;;;;5093578;28;20203;-83
2023/07/26 07:55:48;;;;;;;2.72;1.67;;;17.60;99.90;;;;;;5093306;28;20203;-83
2023/07/26 07:58:20;;;;;;;4.65;1.80;;;17.50;99.90;;;;;;5092662;28;20666;-84
2023/07/26 08:00:51;;;;;;;2.88;1.73;;;17.50;99.90;;;;;;5093682;28;20195;-84
2023/07/26 08:03:22;;;;;;;3.70;1.52;;;17.40;99.90;;;;;;5093540;28;20291;-85
2023/07/26 08:05:54;;;;;;;3.90;1.70;;;17.40;99.90;;;;;;5090138;28;20223;-83
2023/07/26 08:08:24;;;;;;;2.75;1.90;;;17.40;99.90;;;;;;5078177;28;20283;-83
2023/07/26 08:10:57;;;;;;;3.65;1.75;;;17.40;99.90;;;;;;5074995;28;20611;-84
2023/07/26 08:13:28;;;;;;;2.83;1.65;;;17.30;99.90;;;;;;5073112;28;20199;-84
2023/07/26 08:16:01;;;;;;;4.30;1.73;;;17.30;99.90;;;;;;5085969;28;20666;-83
2023/07/26 08:18:32;;;;;;;3.70;1.90;;;17.20;99.90;;;;;;5093184;28;20626;-84
2023/07/26 08:21:04;;;;;;;3.42;2.10;;;17.20;99.90;;;;;;5096443;28;20197;-82
2023/07/26 08:23:34;;;;;;;2.97;1.90;;;17.20;99.90;;;;;;5093522;28;20256;-83
2023/07/26 08:26:11;;;;;;;4.85;1.80;;;17.20;99.90;;;;;;5076988;28;20206;-83
2023/07/26 08:28:42;;;;;;;3.17;1.98;;;17.20;99.90;;;;;;5077843;28;20192;-84
2023/07/26 08:31:12;;;;;;;4.35;2.13;;;17.10;99.90;;;;;;5079719;28;20282;-84
2023/07/26 08:33:45;;;;;;;6.00;2.25;;;17.10;99.90;;;;;;5087020;28;20200;-84
2023/07/26 08:36:16;;;;;;;4.68;2.25;;;17.10;99.90;;;;;;5086465;28;20195;-85
2023/07/26 08:38:47;;;;;;;3.20;2.40;;;17.10;99.90;;;;;;5093075;28;20223;-84
2023/07/26 08:41:22;;;;;;;5.68;2.85;;;17.10;99.90;;;;;;5093065;28;20662;-84
2023/07/26 08:43:56;;;;;;;4.07;2.78;;;17.00;99.90;;;;;;5093124;28;20194;-83
2023/07/26 08:46:28;;;;;;;4.63;3.03;;;17.00;99.90;;;;;;5092401;28;20201;-84
2023/07/26 08:48:59;;;;;;;6.00;3.40;;;17.00;99.90;;;;;;5086945;28;20199;-83
2023/07/26 08:51:32;;;;;;;3.40;2.70;;;16.90;99.90;;;;;;5092172;28;20187;-83
2023/07/26 08:54:03;;;;;;;4.80;2.78;;;16.90;99.90;;;;;;5092292;28;20205;-84
2023/07/26 08:56:36;;;;;;;4.38;2.88;;;16.90;99.90;;;;;;5092429;28;20195;-84
2023/07/26 08:59:07;;;;;;;5.72;3.33;;;16.90;99.90;;;;;;5092039;28;20197;-83
2023/07/26 09:01:38;;;;;;;6.65;3.33;;;16.90;99.90;;;;;;5091995;28;20664;-84
2023/07/26 09:04:08;;;;;;;6.82;3.85;;;16.90;99.90;;;;;;5091683;28;20230;-84
2023/07/26 09:06:44;;;;;;;7.95;5.90;;;16.80;99.90;;;;;;5082103;28;20205;-82
2023/07/26 09:09:16;;;;;;;7.50;5.53;;;16.80;99.90;;;;;;5091377;28;20207;-82
2023/07/26 09:11:54;;;;;;;5.63;4.70;;;16.80;99.90;;;;;;5092049;28;20261;-84
2023/07/26 09:14:29;;;;;;;8.80;7.47;;;16.80;99.90;;;;;;5091805;28;20203;-84
2023/07/26 09:17:00;;;;;;;9.30;7.85;;;16.70;99.90;;;;;;5091883;28;20198;-84
2023/07/26 09:19:35;;;;;;;8.02;6.38;;;16.70;99.90;;;;;;5091048;28;20195;-84
2023/07/26 09:22:06;;;;;;;10.00;7.15;;;16.70;99.90;;;;;;5093539;28;20183;-82
2023/07/26 09:24:40;;;;;;;16.33;14.63;;;16.70;99.90;;;;;;5083813;28;20279;-82
2023/07/26 09:27:14;;;;;;;12.98;11.55;;;16.60;99.90;;;;;;5085276;28;20226;-83
2023/07/26 09:29:55;;;;;;;8.75;7.65;;;16.60;99.90;;;;;;5093260;28;20199;-84
2023/07/26 09:32:32;;;;;;;8.35;5.90;;;16.60;99.90;;;;;;5091731;28;20191;-84
2023/07/26 09:35:08;;;;;;;5.30;4.22;;;16.50;99.90;;;;;;5083849;28;20203;-83
2023/07/26 09:37:41;;;;;;;4.93;3.75;;;16.60;99.90;;;;;;5082977;28;20543;-84
2023/07/26 09:40:12;;;;;;;6.05;4.38;;;16.50;99.90;;;;;;5085630;28;20214;-84
2023/07/26 09:42:49;;;;;;;7.20;4.53;;;16.50;99.90;;;;;;5071324;28;20185;-84
2023/07/26 09:45:22;;;;;;;6.93;4.43;;;16.50;99.90;;;;;;5071394;28;20277;-83
2023/07/26 09:47:53;;;;;;;9.27;4.90;;;16.50;99.90;;;;;;5072056;28;20200;-82
2023/07/26 09:50:31;;;;;;;7.95;5.35;;;16.50;99.90;;;;;;5071757;28;20187;-84
2023/07/26 09:53:02;;;;;;;12.23;5.90;;;16.50;99.90;;;;;;5070908;28;20202;-84
2023/07/26 09:55:33;;;;;;;8.85;4.47;;;16.40;99.90;;;;;;5088508;28;20195;-82
2023/07/26 09:58:06;;;;;;;10.35;5.47;;;16.40;99.90;;;;;;5077757;28;20195;-83
2023/07/26 10:00:38;;;;;;;10.45;5.20;;;16.40;99.90;;;;;;5089199;28;20251;-84
2023/07/26 10:03:10;;;;;;;6.88;4.35;;;16.30;99.90;;;;;;5091346;28;20231;-84
2023/07/26 10:05:45;;;;;;;14.60;6.32;;;16.30;99.90;;;;;;5090752;28;20291;-83
2023/07/26 10:08:21;;;;;;;11.27;5.35;;;16.30;99.90;;;;;;5091210;28;20713;-83
2023/07/26 10:10:55;;;;;;;6.43;4.07;;;16.30;99.90;;;;;;5090905;28;20278;-83
2023/07/26 10:13:29;;;;;;;6.13;3.63;;;16.30;99.90;;;;;;5091046;28;20198;-84
2023/07/26 10:16:01;;;;;;;11.90;5.43;;;16.30;99.90;;;;;;5071338;28;20230;-84
2023/07/26 10:18:33;;;;;;;10.05;5.18;;;16.40;99.90;;;;;;5071409;28;20212;-83
2023/07/26 10:21:07;;;;;;;16.80;8.25;;;16.40;99.90;;;;;;5071373;28;20196;-85
2023/07/26 10:23:38;;;;;;;14.27;6.43;;;16.20;99.90;;;;;;5075624;28;20206;-83
2023/07/26 10:26:09;;;;;;;16.45;9.02;;;16.10;99.90;;;;;;5091048;28;20302;-84
2023/07/26 10:28:43;;;;;;;12.13;5.60;;;16.10;99.90;;;;;;5089708;28;20196;-84
2023/07/26 10:31:14;;;;;;;7.55;4.60;;;16.10;99.90;;;;;;5084074;28;20654;-84
2023/07/26 10:33:48;;;;;;;10.35;6.07;;;16.10;99.90;;;;;;5077201;28;20192;-84
2023/07/26 10:36:19;;;;;;;10.93;7.47;;;16.10;99.90;;;;;;5075613;28;20194;-85
2023/07/26 10:38:52;;;;;;;9.32;6.10;;;16.10;99.90;;;;;;5076896;28;20283;-84
2023/07/26 10:41:26;;;;;;;8.15;5.60;;;16.10;99.90;;;;;;5093252;28;20210;-82
2023/07/26 10:44:09;;;;;;;7.47;5.15;;;16.10;99.90;;;;;;5095516;28;20202;-83
2023/07/26 10:46:56;;;;;;;7.60;5.28;;;16.10;99.90;;;;;;5094629;28;20234;-83
2023/07/26 10:49:30;;;;;;;6.13;4.88;;;16.10;99.90;;;;;;5076256;28;20227;-83
2023/07/26 10:52:02;;;;;;;5.97;4.85;;;16.10;99.90;;;;;;5082572;28;20210;-84
2023/07/26 10:54:38;;;;;;;6.88;4.60;;;15.90;99.90;;;;;;5091268;28;20195;-86
2023/07/26 10:57:20;;;;;;;9.35;4.95;;;15.90;99.90;;;;;;5094988;28;20201;-85
2023/07/26 11:00:04;;;;;;;7.97;4.38;;;15.90;99.90;;;;;;5088443;28;20192;-84
2023/07/26 11:02:46;;;;;;;6.63;4.25;;;15.80;99.90;;;;;;5078363;28;20302;-88
2023/07/26 11:05:18;;;;;;;6.85;4.20;;;15.80;99.90;;;;;;5088088;28;20588;-86
2023/07/26 11:08:05;;;;;;;6.22;3.75;;;15.80;99.90;;;;;;5073894;28;20264;-83
2023/07/26 11:10:37;;;;;;;6.68;4.28;;;15.70;99.90;;;;;;5074027;28;20202;-84
2023/07/26 11:13:13;;;;;;;6.95;4.60;;;15.60;99.90;;;;;;5074471;28;20310;-85
2023/07/26 11:15:49;;;;;;;6.72;4.57;;;15.60;99.90;;;;;;5076281;28;20194;-84
2023/07/26 11:18:20;;;;;;;8.88;5.13;;;15.60;99.90;;;;;;5077117;28;20765;-87
2023/07/26 11:20:53;;;;;;;6.90;4.60;;;15.60;99.90;;;;;;5085473;28;20197;-85
2023/07/26 11:23:25;;;;;;;7.25;4.50;;;15.60;99.90;;;;;;5079943;28;20199;-85
2023/07/26 11:25:59;;;;;;;17.13;5.63;;;15.60;99.90;;;;;;5082491;28;20263;-86
2023/07/26 11:28:34;;;;;;;8.18;5.93;;;15.60;99.90;;;;;;5093875;28;20723;-86
2023/07/26 11:31:07;;;;;;;11.05;5.53;;;15.60;99.90;;;;;;5075804;28;20670;-84
2023/07/26 11:33:39;;;;;;;9.52;5.55;;;15.60;99.90;;;;;;5073854;28;20212;-87
2023/07/26 11:36:10;;;;;;;10.43;5.47;;;15.50;99.90;;;;;;5074025;28;20188;-86
2023/07/26 11:38:46;;;;;;;9.57;5.20;;;15.50;99.90;;;;;;5077273;28;20282;-85
2023/07/26 11:41:21;;;;;;;9.13;5.35;;;15.50;99.90;;;;;;5093432;28;20205;-87
2023/07/26 11:43:53;;;;;;;9.90;5.03;;;15.40;99.90;;;;;;5083159;28;20206;-85
2023/07/26 11:46:31;;;;;;;9.35;5.50;;;15.50;99.90;;;;;;5074116;28;20224;-85
2023/07/26 11:49:02;;;;;;;9.70;5.47;;;15.50;99.90;;;;;;5073535;28;20196;-85
2023/07/26 11:51:35;;;;;;;6.97;5.10;;;15.40;99.90;;;;;;5073032;28;20200;-84
2023/07/26 11:54:09;;;;;;;8.60;5.47;;;15.30;99.90;;;;;;5073202;28;20196;-85
2023/07/26 11:56:41;;;;;;;9.32;6.00;;;15.30;99.90;;;;;;5084620;28;20281;-85
2023/07/26 11:59:12;;;;;;;8.55;6.10;;;15.30;99.90;;;;;;5099507;28;20222;-85
2023/07/26 12:01:47;;;;;;;10.20;5.80;;;15.20;99.90;;;;;;5097621;28;20260;-85
2023/07/26 12:04:19;;;;;;;7.57;5.35;;;15.20;99.90;;;;;;5103722;28;20689;-84
2023/07/26 12:06:49;;;;;;;8.07;5.40;;;15.20;99.90;;;;;;5094065;28;20689;-86
2023/07/26 12:09:23;;;;;;;8.88;5.55;;;15.10;99.90;;;;;;5093980;28;20577;-83
2023/07/26 12:11:55;;;;;;;7.93;5.30;;;15.10;99.90;;;;;;5090724;28;20198;-86
2023/07/26 12:14:26;;;;;;;7.82;5.03;;;15.10;99.90;;;;;;5083124;28;20188;-83
2023/07/26 12:16:59;;;;;;;8.70;5.10;;;15.20;99.90;;;;;;5093585;28;20217;-85
2023/07/26 12:19:30;;;;;;;7.22;4.70;;;15.20;99.90;;;;;;5085270;28;20249;-83
2023/07/26 12:22:03;;;;;;;7.95;4.82;;;15.20;99.90;;;;;;5073156;28;20181;-84
2023/07/26 12:24:33;;;;;;;8.60;4.53;;;15.20;99.90;;;;;;5073161;28;20192;-84
2023/07/26 12:27:05;;;;;;;7.93;4.63;;;15.20;99.90;;;;;;5073059;28;20208;-85
2023/07/26 12:29:38;;;;;;;8.45;4.45;;;15.30;99.90;;;;;;5089484;28;20274;-85
2023/07/26 12:32:14;;;;;;;7.20;4.00;;;15.30;99.90;;;;;;5083160;28;20203;-85
2023/07/26 12:34:44;;;;;;;8.40;4.22;;;15.30;99.90;;;;;;5095921;28;20275;-85
2023/07/26 12:37:15;;;;;;;8.60;4.05;;;15.20;99.90;;;;;;5074285;28;20203;-84
2023/07/26 12:39:48;;;;;;;6.65;4.28;;;15.20;99.90;;;;;;5073255;28;20227;-83
2023/07/26 12:42:18;;;;;;;6.55;4.35;;;15.10;99.90;;;;;;5093730;28;20286;-85
2023/07/26 12:44:49;;;;;;;8.20;4.35;;;15.10;99.90;;;;;;5094007;28;20186;-85
2023/07/26 12:47:22;;;;;;;7.90;4.13;;;15.10;99.90;;;;;;5093697;28;20264;-85
2023/07/26 12:49:53;;;;;;;9.85;4.15;;;15.10;99.90;;;;;;5093874;28;20195;-85
2023/07/26 12:52:23;;;;;;;8.10;4.28;;;15.10;99.90;;;;;;5091998;28;20187;-86
2023/07/26 12:54:54;;;;;;;7.18;4.40;;;15.10;99.90;;;;;;5093441;28;20240;-86
2023/07/26 12:57:25;;;;;;;7.72;4.28;;;15.00;99.90;;;;;;5093137;28;20217;-86
2023/07/26 12:59:56;;;;;;;7.45;4.38;;;15.00;99.90;;;;;;5092236;28;20246;-85
2023/07/26 13:02:29;;;;;;;5.13;3.95;;;15.00;99.90;;;;;;5092690;28;20229;-86
2023/07/26 13:05:00;;;;;;;9.95;3.78;;;15.00;99.90;;;;;;5078781;28;20220;-86
2023/07/26 13:07:30;;;;;;;6.32;4.10;;;15.00;99.90;;;;;;5090747;28;20233;-85
2023/07/26 13:10:03;;;;;;;8.85;3.60;;;14.90;99.90;;;;;;5085405;28;20215;-84